createdAt,value
2019-05-06T00:00:59.469Z,100265.66
2019-05-06T00:03:30.192Z,100270.50
2019-05-06T00:06:01.132Z,100269.57
2019-05-06T00:08:34.205Z,100268.61
2019-05-06T00:11:05.008Z,100264.17
2019-05-06T00:13:35.892Z,100259.95
2019-05-06T00:16:07.287Z,100259.95
2019-05-06T00:18:38.346Z,100254.23
2019-05-06T00:21:09.384Z,100251.97
2019-05-06T00:23:41.983Z,100250.94
2019-05-06T00:26:24.327Z,100251.90
2019-05-06T00:28:57.181Z,100251.95
2019-05-06T00:31:28.250Z,100252.83
2019-05-06T00:33:59.357Z,100246.27
2019-05-06T00:36:30.466Z,100256.02
2019-05-06T00:39:04.588Z,100252.03
2019-05-06T00:41:37.377Z,100257.34
2019-05-06T00:44:08.579Z,100253.92
2019-05-06T00:46:39.694Z,100256.58
2019-05-06T00:49:10.761Z,100257.43
2019-05-06T00:51:43.881Z,100254.33
2019-05-06T00:54:16.847Z,100258.77
2019-05-06T00:56:47.977Z,100255.78
2019-05-06T00:59:19.015Z,100251.80
2019-05-06T01:01:50.135Z,100250.47
2019-05-06T01:04:21.346Z,100252.36
2019-05-06T01:06:54.417Z,100245.72
2019-05-06T01:09:25.712Z,100249.70
2019-05-06T01:11:58.391Z,100245.39
2019-05-06T01:14:39.860Z,100244.15
2019-05-06T01:17:11.033Z,100243.59
2019-05-06T01:19:41.977Z,100239.36
2019-05-06T01:22:14.053Z,100246.89
2019-05-06T01:24:45.195Z,100242.58
2019-05-06T01:27:16.282Z,100250.16
2019-05-06T01:29:47.284Z,100244.16
2019-05-06T01:32:18.428Z,100237.43
2019-05-06T01:34:49.592Z,100234.85
2019-05-06T01:37:20.727Z,100233.97
2019-05-06T01:40:09.274Z,100241.18
2019-05-06T01:42:59.993Z,100238.89
2019-05-06T01:45:31.119Z,100243.60
2019-05-06T01:48:04.030Z,100239.74
2019-05-06T01:50:34.926Z,100241.23
2019-05-06T01:53:06.064Z,100235.68
2019-05-06T01:55:37.102Z,100233.58
2019-05-06T01:58:08.228Z,100229.20
2019-05-06T02:00:39.668Z,100231.05
2019-05-06T02:03:10.846Z,100230.69
2019-05-06T02:05:41.833Z,100231.22
2019-05-06T02:08:13.496Z,100232.30
2019-05-06T02:10:44.864Z,100232.30
2019-05-06T02:13:16.851Z,100235.84
2019-05-06T02:15:47.871Z,100230.61
2019-05-06T02:18:20.150Z,100230.20
2019-05-06T02:20:53.818Z,100230.73
2019-05-06T02:23:26.666Z,100230.37
2019-05-06T02:25:57.696Z,100226.38
2019-05-06T02:28:28.735Z,100227.84
2019-05-06T02:31:17.882Z,100226.27
2019-05-06T02:33:50.608Z,100232.83
2019-05-06T02:36:39.205Z,100230.05
2019-05-06T02:39:10.255Z,100225.58
2019-05-06T02:41:42.999Z,100223.24
2019-05-06T02:44:14.187Z,100223.64
2019-05-06T02:46:46.923Z,100218.41
2019-05-06T02:49:23.719Z,100220.11
2019-05-06T02:51:54.989Z,100218.41
2019-05-06T02:54:27.414Z,100225.09
2019-05-06T02:56:58.512Z,100228.64
2019-05-06T02:59:29.584Z,100228.08
2019-05-06T03:02:03.359Z,100222.92
2019-05-06T03:04:33.530Z,100223.85
2019-05-06T03:07:04.656Z,100220.11
2019-05-06T03:09:35.683Z,100230.61
2019-05-06T03:12:07.035Z,100226.98
2019-05-06T03:14:37.951Z,100220.75
2019-05-06T03:17:09.150Z,100223.24
2019-05-06T03:19:45.760Z,100226.14
2019-05-06T03:22:18.967Z,100225.70
2019-05-06T03:24:54.473Z,100221.99
2019-05-06T03:27:24.438Z,100222.23
2019-05-06T03:29:55.380Z,100232.25
2019-05-06T03:32:30.737Z,100231.53
2019-05-06T03:35:21.774Z,100237.25
2019-05-06T03:37:33.416Z,100241.63
2019-05-06T03:40:05.683Z,100239.75
2019-05-06T03:42:36.862Z,100238.73
2019-05-06T03:45:09.408Z,100240.47
2019-05-06T03:47:47.636Z,100240.30
2019-05-06T03:50:18.559Z,100236.00
2019-05-06T03:52:49.587Z,100233.42
2019-05-06T03:55:23.310Z,100232.58
2019-05-06T03:57:54.000Z,100232.86
2019-05-06T04:00:25.126Z,100226.00
2019-05-06T04:02:56.367Z,100226.86
2019-05-06T04:05:27.565Z,100221.01
2019-05-06T04:07:58.800Z,100224.44
2019-05-06T04:10:29.826Z,100221.77
2019-05-06T04:13:03.899Z,100217.63
2019-05-06T04:15:36.150Z,100221.24
2019-05-06T04:18:12.513Z,100223.50
2019-05-06T04:20:48.137Z,100225.59
2019-05-06T04:23:36.275Z,100223.82
2019-05-06T04:26:13.430Z,100227.41
2019-05-06T04:28:44.151Z,100228.02
2019-05-06T04:31:15.283Z,100232.01
2019-05-06T04:34:05.159Z,100230.76
2019-05-06T04:36:19.246Z,100223.67
2019-05-06T04:38:50.373Z,100232.80
2019-05-06T04:41:23.182Z,100224.75
2019-05-06T04:43:54.180Z,100218.95
2019-05-06T04:46:25.335Z,100221.24
2019-05-06T04:48:56.277Z,100222.49
2019-05-06T04:51:27.901Z,100229.22
2019-05-06T04:53:59.339Z,100219.75
2019-05-06T04:56:33.168Z,100221.31
2019-05-06T04:59:06.387Z,100222.64
2019-05-06T05:01:35.980Z,100219.98
2019-05-06T05:04:22.815Z,100214.50
2019-05-06T05:06:43.201Z,100217.96
2019-05-06T05:09:17.482Z,100218.56
2019-05-06T05:11:52.993Z,100213.47
2019-05-06T05:14:39.816Z,100220.75
2019-05-06T05:17:12.814Z,100220.59
2019-05-06T05:19:44.177Z,100219.97
2019-05-06T05:22:16.320Z,100226.94
2019-05-06T05:24:47.340Z,100228.09
2019-05-06T05:27:18.502Z,100217.29
2019-05-06T05:29:49.671Z,100223.32
2019-05-06T05:32:22.456Z,100225.67
2019-05-06T05:34:53.411Z,100225.68
2019-05-06T05:37:24.524Z,100217.53
2019-05-06T05:39:55.582Z,100218.06
2019-05-06T05:42:32.755Z,100217.63
2019-05-06T05:45:04.718Z,100211.28
2019-05-06T05:47:36.633Z,100212.92
2019-05-06T05:50:09.408Z,100209.55
2019-05-06T05:52:42.496Z,100214.44
2019-05-06T05:55:13.375Z,100210.39
2019-05-06T05:57:44.614Z,100207.38
2019-05-06T06:00:16.999Z,100207.42
2019-05-06T06:02:48.127Z,100207.42
2019-05-06T06:05:19.221Z,100211.44
2019-05-06T06:07:50.444Z,100202.20
2019-05-06T06:10:24.398Z,100209.80
2019-05-06T06:12:55.721Z,100209.66
2019-05-06T06:15:45.931Z,100203.14
2019-05-06T06:18:22.406Z,100210.55
2019-05-06T06:21:17.782Z,100207.97
2019-05-06T06:23:44.036Z,100210.72
2019-05-06T06:26:14.922Z,100215.23
2019-05-06T06:28:45.936Z,100211.88
2019-05-06T06:31:22.988Z,100206.58
2019-05-06T06:33:55.972Z,100204.91
2019-05-06T06:36:52.483Z,100205.15
2019-05-06T06:39:27.293Z,100209.16
2019-05-06T06:41:58.432Z,100208.22
2019-05-06T06:44:33.144Z,100205.95
2019-05-06T06:47:04.474Z,100201.58
2019-05-06T06:49:35.684Z,100205.87
2019-05-06T06:52:11.272Z,100197.78
2019-05-06T06:54:39.669Z,100191.09
2019-05-06T06:57:18.020Z,100189.20
2019-05-06T06:59:53.391Z,100184.59
2019-05-06T07:02:34.314Z,100182.47
2019-05-06T07:05:28.344Z,100187.78
2019-05-06T07:07:57.516Z,100187.48
2019-05-06T07:10:39.409Z,100180.26
2019-05-06T07:13:12.156Z,100177.19
2019-05-06T07:15:43.513Z,100178.02
2019-05-06T07:18:14.592Z,100188.77
2019-05-06T07:21:04.899Z,100184.53
2019-05-06T07:23:36.972Z,100163.78
2019-05-06T07:26:12.007Z,100185.02
2019-05-06T07:28:43.611Z,100188.45
2019-05-06T07:31:22.417Z,100178.42
2019-05-06T07:33:48.983Z,100183.09
2019-05-06T07:36:20.303Z,100185.92
2019-05-06T07:38:52.863Z,100180.52
2019-05-06T07:41:25.663Z,100169.45
2019-05-06T07:43:58.416Z,100177.22
2019-05-06T07:46:33.916Z,100176.20
2019-05-06T07:49:05.237Z,100170.68
2019-05-06T07:51:36.472Z,100164.06
2019-05-06T07:54:07.503Z,100154.83
2019-05-06T07:56:38.646Z,100149.25
2019-05-06T07:59:09.751Z,100148.13
2019-05-06T08:01:43.786Z,100154.69
2019-05-06T08:04:14.307Z,100143.26
2019-05-06T08:06:45.541Z,100140.55
2019-05-06T08:09:16.772Z,100135.60
2019-05-06T08:11:47.856Z,100134.02
2019-05-06T08:14:19.613Z,100127.81
2019-05-06T08:16:58.358Z,100129.17
2019-05-06T08:19:29.428Z,100128.66
2019-05-06T08:22:02.764Z,100127.08
2019-05-06T08:24:33.939Z,100127.70
2019-05-06T08:27:05.166Z,100132.06
2019-05-06T08:29:42.505Z,100124.77
2019-05-06T08:32:13.670Z,100131.38
2019-05-06T08:34:52.969Z,100127.88
2019-05-06T08:37:32.510Z,100125.56
2019-05-06T08:40:04.801Z,100127.52
2019-05-06T08:42:35.775Z,100133.64
2019-05-06T08:45:07.378Z,100133.19
2019-05-06T08:47:38.333Z,100126.48
2019-05-06T08:50:27.408Z,100126.41
2019-05-06T08:53:06.058Z,100126.76
2019-05-06T08:55:42.130Z,100119.34
2019-05-06T08:58:13.936Z,100118.75
2019-05-06T09:00:59.807Z,100114.22
2019-05-06T09:03:32.775Z,100106.30
2019-05-06T09:06:03.688Z,100108.86
2019-05-06T09:08:34.862Z,100100.22
2019-05-06T09:11:05.873Z,100104.12
2019-05-06T09:13:36.883Z,100099.71
2019-05-06T09:16:08.742Z,100092.16
2019-05-06T09:18:42.345Z,100098.61
2019-05-06T09:21:12.933Z,100098.61
2019-05-06T09:23:44.092Z,100091.31
2019-05-06T09:26:22.452Z,100091.06
2019-05-06T09:28:55.031Z,100089.09
2019-05-06T09:31:36.641Z,100085.81
2019-05-06T09:34:24.517Z,100081.16
2019-05-06T09:37:14.074Z,100095.09
2019-05-06T09:39:45.577Z,100085.81
2019-05-06T09:42:16.739Z,100094.00
2019-05-06T09:44:50.485Z,100090.30
2019-05-06T09:47:28.241Z,100079.22
2019-05-06T09:50:02.525Z,100073.36
2019-05-06T09:52:33.461Z,100073.72
2019-05-06T09:55:08.968Z,100078.84
2019-05-06T09:57:56.835Z,100085.03
2019-05-06T10:00:32.313Z,100075.86
2019-05-06T10:03:03.371Z,100078.81
2019-05-06T10:05:34.844Z,100077.56
2019-05-06T10:08:05.885Z,100072.38
2019-05-06T10:10:37.965Z,100071.66
2019-05-06T10:13:09.035Z,100066.23
2019-05-06T10:15:40.193Z,100060.02
2019-05-06T10:18:13.267Z,100067.16
2019-05-06T10:20:45.341Z,100058.20
2019-05-06T10:23:16.651Z,100055.70
2019-05-06T10:25:47.667Z,100054.64
2019-05-06T10:28:33.232Z,100055.02
2019-05-06T10:33:58.887Z,100047.53
2019-05-06T10:36:34.759Z,100052.60
2019-05-06T10:39:07.946Z,100055.66
2019-05-06T10:41:42.071Z,100053.98
2019-05-06T10:44:19.086Z,100056.76
2019-05-06T10:46:52.445Z,100056.98
2019-05-06T10:49:22.953Z,100059.92
2019-05-06T10:52:02.209Z,100058.63
2019-05-06T10:54:33.450Z,100056.41
2019-05-06T10:57:12.537Z,100051.16
2019-05-06T10:59:44.843Z,100053.95
2019-05-06T11:02:23.419Z,100055.26
2019-05-06T11:04:54.460Z,100048.80
2019-05-06T11:07:31.496Z,100043.15
2019-05-06T11:09:58.218Z,100036.18
2019-05-06T11:12:29.347Z,100034.45
2019-05-06T11:15:03.255Z,100033.30
2019-05-06T11:17:33.291Z,100030.48
2019-05-06T11:20:06.906Z,100027.05
2019-05-06T11:22:38.080Z,100025.81
2019-05-06T11:25:09.223Z,100023.28
2019-05-06T11:27:42.498Z,100017.94
2019-05-06T11:30:14.751Z,100022.95
2019-05-06T11:32:48.723Z,100011.11
2019-05-06T11:35:25.364Z,100002.59
2019-05-06T11:38:00.744Z,100010.40
2019-05-06T11:40:33.034Z,100004.69
2019-05-06T11:43:04.489Z,100009.42
2019-05-06T11:45:35.607Z,100001.72
2019-05-06T11:48:06.700Z,100000.11
2019-05-06T11:50:38.411Z,100003.77
2019-05-06T11:53:12.500Z,99998.91
2019-05-06T11:55:43.722Z,100003.77
2019-05-06T11:58:32.706Z,99995.81
2019-05-06T12:01:05.460Z,99993.86
2019-05-06T12:03:36.833Z,99988.72
2019-05-06T12:06:07.880Z,99989.35
2019-05-06T12:08:38.986Z,99999.73
2019-05-06T12:11:12.554Z,99995.23
2019-05-06T12:13:43.876Z,99990.96
2019-05-06T12:16:15.170Z,99993.78
2019-05-06T12:18:46.285Z,99981.69
2019-05-06T12:21:19.351Z,99984.27
2019-05-06T12:23:53.543Z,99979.76
2019-05-06T12:26:24.003Z,99983.16
2019-05-06T12:28:55.086Z,99976.44
2019-05-06T12:31:26.259Z,99967.52
2019-05-06T12:33:57.442Z,99970.08
2019-05-06T12:36:28.542Z,99968.73
2019-05-06T12:39:18.532Z,99972.40
2019-05-06T12:41:50.149Z,99965.03
2019-05-06T12:44:23.065Z,99969.40
2019-05-06T12:46:59.947Z,99964.95
2019-05-06T12:49:32.522Z,99967.23
2019-05-06T12:52:03.955Z,99960.52
2019-05-06T12:54:35.160Z,99965.63
2019-05-06T12:57:06.350Z,99952.19
2019-05-06T12:59:37.352Z,99960.25
2019-05-06T13:02:08.454Z,99958.80
2019-05-06T13:04:51.775Z,99948.66
2019-05-06T13:07:14.141Z,99951.40
2019-05-06T13:09:45.579Z,99948.08
2019-05-06T13:12:18.604Z,99950.63
2019-05-06T13:14:49.702Z,99952.72
2019-05-06T13:17:23.330Z,99947.97
2019-05-06T13:19:54.854Z,99947.84
2019-05-06T13:22:34.245Z,99950.53
2019-05-06T13:25:07.935Z,99948.10
2019-05-06T13:27:39.385Z,99945.28
2019-05-06T13:30:12.792Z,99936.30
2019-05-06T13:32:44.991Z,99939.67
2019-05-06T13:35:17.204Z,99938.33
2019-05-06T13:37:48.334Z,99932.95
2019-05-06T13:40:19.402Z,99929.55
2019-05-06T13:42:57.879Z,99922.83
2019-05-06T13:45:28.965Z,99920.72
2019-05-06T13:48:03.840Z,99928.86
2019-05-06T13:50:38.398Z,99925.91
2019-05-06T13:53:14.004Z,99924.33
2019-05-06T13:55:42.874Z,99919.08
2019-05-06T13:58:14.044Z,99920.19
2019-05-06T14:00:45.127Z,99916.66
2019-05-06T14:03:17.617Z,99918.64
2019-05-06T14:05:52.192Z,99921.92
2019-05-06T14:08:33.754Z,99922.30
2019-05-06T14:11:05.299Z,99911.03
2019-05-06T14:13:42.171Z,99913.98
2019-05-06T14:16:17.671Z,99913.98
2019-05-06T14:18:48.774Z,99908.61
2019-05-06T14:21:19.969Z,99913.02
2019-05-06T14:23:51.377Z,99906.77
2019-05-06T14:26:25.541Z,99903.00
2019-05-06T14:29:02.333Z,99905.45
2019-05-06T14:31:39.441Z,99904.73
2019-05-06T14:34:11.938Z,99900.94
2019-05-06T14:36:55.703Z,99895.09
2019-05-06T14:39:25.378Z,99894.22
2019-05-06T14:41:58.448Z,99889.73
2019-05-06T14:44:29.447Z,99887.89
2019-05-06T14:47:12.597Z,99882.02
2019-05-06T14:49:44.911Z,99876.16
2019-05-06T14:52:16.346Z,99873.36
2019-05-06T14:54:53.426Z,99867.36
2019-05-06T14:57:25.484Z,99871.16
2019-05-06T14:59:56.722Z,99859.95
2019-05-06T15:05:23.670Z,99863.11
2019-05-06T15:07:56.535Z,99858.74
2019-05-06T15:10:32.253Z,99861.06
2019-05-06T15:13:04.033Z,99854.23
2019-05-06T15:15:37.770Z,99855.05
2019-05-06T15:18:12.756Z,99850.89
2019-05-06T15:20:45.276Z,99850.80
2019-05-06T15:23:18.268Z,99855.91
2019-05-06T15:25:51.886Z,99846.88
2019-05-06T15:28:23.238Z,99850.77
2019-05-06T15:31:08.050Z,99843.08
2019-05-06T15:33:43.841Z,99850.69
2019-05-06T15:36:15.886Z,99847.43
2019-05-06T15:38:47.285Z,99842.20
2019-05-06T15:41:18.851Z,99846.00
2019-05-06T15:43:50.291Z,99843.94
2019-05-06T15:46:22.791Z,99841.37
2019-05-06T15:48:54.663Z,99840.29
2019-05-06T15:51:34.906Z,99835.02
2019-05-06T15:54:06.437Z,99839.31
2019-05-06T15:56:37.849Z,99839.42
2019-05-06T15:59:09.234Z,99840.66
2019-05-06T16:01:43.149Z,99836.39
2019-05-06T16:04:14.607Z,99836.71
2019-05-06T16:06:45.977Z,99840.40
2019-05-06T16:09:17.255Z,99836.83
2019-05-06T16:11:53.182Z,99840.97
2019-05-06T16:14:27.190Z,99834.36
2019-05-06T16:16:58.293Z,99832.91
2019-05-06T16:19:29.661Z,99837.15
2019-05-06T16:22:04.346Z,99830.65
2019-05-06T16:24:37.387Z,99826.25
2019-05-06T16:27:12.332Z,99829.91
2019-05-06T16:29:44.757Z,99830.55
2019-05-06T16:32:15.917Z,99831.56
2019-05-06T16:34:47.032Z,99830.36
2019-05-06T16:37:17.973Z,99828.20
2019-05-06T16:39:49.095Z,99827.73
2019-05-06T16:42:22.464Z,99827.23
2019-05-06T16:44:53.994Z,99825.28
2019-05-06T16:47:37.640Z,99826.89
2019-05-06T16:50:16.839Z,99836.28
2019-05-06T16:52:47.804Z,99836.88
2019-05-06T16:55:20.627Z,99837.13
2019-05-06T16:57:58.990Z,99837.27
2019-05-06T17:00:32.209Z,99837.39
2019-05-06T17:03:07.616Z,99832.49
2019-05-06T17:05:44.138Z,99833.30
2019-05-06T17:08:15.225Z,99835.51
2019-05-06T17:10:47.277Z,99835.97
2019-05-06T17:13:18.461Z,99834.13
2019-05-06T17:15:50.057Z,99824.27
2019-05-06T17:18:22.750Z,99832.64
2019-05-06T17:20:54.015Z,99835.69
2019-05-06T17:23:25.191Z,99839.58
2019-05-06T17:25:56.235Z,99838.11
2019-05-06T17:28:33.521Z,99834.92
2019-05-06T17:31:15.611Z,99842.35
2019-05-06T17:33:51.894Z,99846.36
2019-05-06T17:36:27.410Z,99839.87
2019-05-06T17:38:57.923Z,99838.27
2019-05-06T17:41:42.436Z,99839.58
2019-05-06T17:44:02.826Z,99844.81
2019-05-06T17:46:47.731Z,99848.23
2019-05-06T17:49:23.018Z,99849.27
2019-05-06T17:52:10.912Z,99851.05
2019-05-06T17:54:43.400Z,99844.59
2019-05-06T17:57:14.468Z,99842.73
2019-05-06T17:59:45.667Z,99846.53
2019-05-06T18:02:19.272Z,99844.05
2019-05-06T18:04:53.261Z,99841.12
2019-05-06T18:07:24.397Z,99844.03
2019-05-06T18:09:55.465Z,99839.88
2019-05-06T18:12:26.484Z,99840.95
2019-05-06T18:14:57.543Z,99839.38
2019-05-06T18:17:28.577Z,99841.91
2019-05-06T18:19:59.592Z,99842.11
2019-05-06T18:22:32.414Z,99850.00
2019-05-06T18:25:03.338Z,99851.56
2019-05-06T18:27:34.307Z,99850.08
2019-05-06T18:30:19.400Z,99847.64
2019-05-06T18:32:38.567Z,99853.22
2019-05-06T18:35:09.547Z,99851.73
2019-05-06T18:37:42.638Z,99847.56
2019-05-06T18:40:13.592Z,99845.09
2019-05-06T18:42:44.717Z,99840.93
2019-05-06T18:45:15.935Z,99844.56
2019-05-06T18:47:46.911Z,99846.59
2019-05-06T18:50:18.048Z,99842.31
2019-05-06T18:52:49.234Z,99846.55
2019-05-06T18:55:22.210Z,99845.44
2019-05-06T18:57:52.939Z,99846.39
2019-05-06T19:00:24.945Z,99842.61
2019-05-06T19:02:56.088Z,99842.23
2019-05-06T19:05:32.471Z,99845.48
2019-05-06T19:08:06.054Z,99837.91
2019-05-06T19:10:37.128Z,99837.91
2019-05-06T19:13:08.731Z,99836.53
2019-05-06T19:15:40.135Z,99836.53
2019-05-06T19:18:12.932Z,99836.27
2019-05-06T19:20:44.185Z,99836.88
2019-05-06T19:23:15.702Z,99835.38
2019-05-06T19:25:46.671Z,99835.84
2019-05-06T19:28:17.646Z,99832.55
2019-05-06T19:30:48.688Z,99831.79
2019-05-06T19:33:19.842Z,99832.74
2019-05-06T19:35:52.312Z,99832.13
2019-05-06T19:38:24.494Z,99815.89
2019-05-06T19:40:55.657Z,99835.48
2019-05-06T19:43:26.589Z,99838.38
2019-05-06T19:45:58.714Z,99834.36
2019-05-06T19:48:32.640Z,99839.33
2019-05-06T19:51:03.124Z,99819.20
2019-05-06T19:53:34.362Z,99819.20
2019-05-06T19:56:05.415Z,99835.44
2019-05-06T19:58:36.576Z,99834.59
2019-05-06T20:01:07.655Z,99825.42
2019-05-06T20:03:38.891Z,99829.44
2019-05-06T20:06:27.611Z,99825.54
2019-05-06T20:09:12.903Z,99835.95
2019-05-06T20:11:44.969Z,99830.10
2019-05-06T20:14:15.996Z,99832.23
2019-05-06T20:16:47.148Z,99837.57
2019-05-06T20:19:29.816Z,99828.02
2019-05-06T20:21:52.681Z,99831.76
2019-05-06T20:24:24.074Z,99833.20
2019-05-06T20:26:55.138Z,99838.16
2019-05-06T20:29:26.149Z,99839.98
2019-05-06T20:31:57.291Z,99837.78
2019-05-06T20:34:28.485Z,99836.44
2019-05-06T20:37:01.924Z,99834.76
2019-05-06T20:39:32.358Z,99841.78
2019-05-06T20:42:03.496Z,99840.09
2019-05-06T20:44:34.617Z,99841.78
2019-05-06T20:47:05.718Z,99841.78
2019-05-06T20:49:36.624Z,99845.22
2019-05-06T20:52:07.607Z,99840.27
2019-05-06T20:54:38.742Z,99848.55
2019-05-06T20:57:12.090Z,99848.55
2019-05-06T20:59:43.635Z,99831.43
2019-05-06T21:02:14.640Z,99849.39
2019-05-06T21:04:46.627Z,99847.13
2019-05-06T21:07:17.681Z,99842.94
2019-05-06T21:09:48.658Z,99841.59
2019-05-06T21:12:21.807Z,99842.94
2019-05-06T21:14:52.416Z,99838.81
2019-05-06T21:17:23.453Z,99838.81
2019-05-06T21:19:54.475Z,99832.59
2019-05-06T21:22:26.598Z,99831.65
2019-05-06T21:24:57.608Z,99828.13
2019-05-06T21:27:28.778Z,99822.91
2019-05-06T21:29:59.849Z,99818.63
2019-05-06T21:32:33.003Z,99811.67
2019-05-06T21:35:04.112Z,99804.84
2019-05-06T21:37:35.092Z,99804.84
2019-05-06T21:40:06.106Z,99805.05
2019-05-06T21:42:37.077Z,99814.02
2019-05-06T21:45:08.092Z,99806.61
2019-05-06T21:47:39.189Z,99805.84
2019-05-06T21:50:12.028Z,99806.06
2019-05-06T21:52:43.308Z,99804.95
2019-05-06T21:55:14.243Z,99799.06
2019-05-06T21:57:46.271Z,99803.52
2019-05-06T22:00:17.836Z,99803.06
2019-05-06T22:02:52.842Z,99808.02
2019-05-06T22:05:23.297Z,99805.67
2019-05-06T22:07:54.338Z,99805.39
2019-05-06T22:10:25.534Z,99799.67
2019-05-06T22:12:56.542Z,99803.30
2019-05-06T22:15:27.641Z,99803.13
2019-05-06T22:17:58.844Z,99802.95
2019-05-06T22:20:32.811Z,99799.89
2019-05-06T22:23:03.731Z,99790.77
2019-05-06T22:25:34.794Z,99791.12
2019-05-06T22:28:05.938Z,99796.45
2019-05-06T22:30:36.925Z,99797.89
2019-05-06T22:33:08.092Z,99789.27
2019-05-06T22:35:39.311Z,99795.83
2019-05-06T22:38:12.354Z,99792.88
2019-05-06T22:40:43.248Z,99795.28
2019-05-06T22:43:14.340Z,99790.89
2019-05-06T22:45:45.363Z,99789.66
2019-05-06T22:48:16.598Z,99793.66
2019-05-06T22:50:47.585Z,99795.00
2019-05-06T22:53:18.614Z,99794.61
2019-05-06T22:55:49.679Z,99797.28
2019-05-06T22:58:22.797Z,99809.05
2019-05-06T23:00:55.010Z,99807.78
2019-05-06T23:03:34.556Z,99805.44
2019-05-06T23:06:05.827Z,99804.70
2019-05-06T23:08:37.028Z,99800.77
2019-05-06T23:11:08.149Z,99802.11
2019-05-06T23:13:39.207Z,99803.66
2019-05-06T23:16:12.775Z,99806.91
2019-05-06T23:18:43.207Z,99796.63
2019-05-06T23:21:14.731Z,99790.80
2019-05-06T23:23:48.419Z,99797.97
2019-05-06T23:26:24.818Z,99789.58
2019-05-06T23:28:55.849Z,99792.35
2019-05-06T23:31:26.839Z,99786.14
2019-05-06T23:33:57.948Z,99772.80
2019-05-06T23:36:33.505Z,99772.80
2019-05-06T23:39:43.013Z,99764.34
2019-05-06T23:42:52.675Z,99769.19
2019-05-06T23:46:02.255Z,99770.14
2019-05-06T23:49:09.461Z,99765.86
2019-05-06T23:52:17.241Z,99768.81
2019-05-06T23:55:24.799Z,99767.30
2019-05-06T23:57:54.883Z,99769.02
